createdAt,value
2023-03-21T00:01:07.275Z,2.80
2023-03-21T00:03:43.375Z,3.10
2023-03-21T00:06:18.265Z,3.70
2023-03-21T00:08:53.529Z,2.70
2023-03-21T00:11:28.418Z,3.43
2023-03-21T00:14:03.502Z,3.00
2023-03-21T00:16:39.687Z,2.70
2023-03-21T00:19:15.941Z,3.20
2023-03-21T00:22:06.672Z,3.07
2023-03-21T00:24:42.717Z,3.20
2023-03-21T00:27:44.840Z,3.47
2023-03-21T00:30:15.319Z,3.77
2023-03-21T00:32:56.582Z,3.17
2023-03-21T00:38:27.198Z,3.90
2023-03-21T00:41:18.799Z,4.40
2023-03-21T00:43:59.560Z,3.80
2023-03-21T00:46:45.442Z,4.10
2023-03-21T00:49:24.181Z,4.07
2023-03-21T00:52:14.628Z,4.17
2023-03-21T00:54:51.223Z,3.90
2023-03-21T00:57:37.898Z,3.00
2023-03-21T01:00:16.157Z,3.47
2023-03-21T01:03:14.175Z,3.60
2023-03-21T01:06:05.651Z,3.73
2023-03-21T01:08:58.596Z,3.30
2023-03-21T01:11:34.943Z,3.27
2023-03-21T01:14:22.086Z,3.30
2023-03-21T01:16:57.659Z,2.80
2023-03-21T01:19:48.675Z,3.23
2023-03-21T01:22:25.972Z,5.03
2023-03-21T01:25:19.293Z,3.60
2023-03-21T01:27:56.115Z,3.70
2023-03-21T01:30:36.933Z,4.03
2023-03-21T01:33:19.224Z,4.93
2023-03-21T01:36:03.246Z,4.30
2023-03-21T01:38:45.920Z,4.90
2023-03-21T01:41:42.602Z,4.47
2023-03-21T01:44:28.359Z,5.67
2023-03-21T01:47:10.919Z,4.43
2023-03-21T01:50:08.919Z,4.77
2023-03-21T01:52:57.122Z,4.80
2023-03-21T01:55:37.202Z,3.87
2023-03-21T01:58:31.986Z,3.93
2023-03-21T02:01:15.918Z,4.47
2023-03-21T02:03:56.130Z,3.70
2023-03-21T02:07:24.286Z,3.90
2023-03-21T02:10:07.720Z,4.53
2023-03-21T02:12:42.807Z,4.17
2023-03-21T02:15:18.984Z,4.53
2023-03-21T02:18:33.448Z,4.43
2023-03-21T02:21:41.088Z,4.27
2023-03-21T02:25:01.368Z,4.73
2023-03-21T02:27:57.179Z,4.97
2023-03-21T02:31:07.276Z,5.30
2023-03-21T02:34:03.453Z,4.77
2023-03-21T02:37:28.952Z,4.97
2023-03-21T02:40:33.236Z,4.30
2023-03-21T02:43:37.426Z,4.53
2023-03-21T02:46:39.895Z,5.40
2023-03-21T02:49:41.951Z,4.70
2023-03-21T02:52:37.841Z,4.30
2023-03-21T02:55:22.773Z,4.93
2023-03-21T02:58:12.920Z,4.37
2023-03-21T03:00:56.180Z,4.97
2023-03-21T03:03:44.403Z,4.03
2023-03-21T03:06:25.578Z,4.07
2023-03-21T03:09:23.036Z,3.90
2023-03-21T03:12:42.803Z,4.23
2023-03-21T03:15:36.033Z,5.10
2023-03-21T03:18:42.326Z,4.73
2023-03-21T03:21:28.188Z,4.37
2023-03-21T03:24:20.480Z,4.20
2023-03-21T03:27:10.864Z,5.07
2023-03-21T03:29:48.889Z,4.40
2023-03-21T03:32:38.245Z,4.97
2023-03-21T03:35:17.748Z,4.93
2023-03-21T03:38:01.319Z,4.30
2023-03-21T03:40:53.192Z,3.83
2023-03-21T03:43:50.989Z,3.57
2023-03-21T03:46:49.025Z,3.87
2023-03-21T03:49:29.569Z,4.50
2023-03-21T03:52:29.705Z,4.37
2023-03-21T03:55:14.658Z,4.37
2023-03-21T03:57:52.684Z,3.30
2023-03-21T04:00:32.573Z,4.80
2023-03-21T04:03:09.816Z,3.73
2023-03-21T04:05:47.657Z,3.90
2023-03-21T04:08:23.646Z,4.60
2023-03-21T04:11:02.813Z,4.23
2023-03-21T04:13:40.044Z,4.33
2023-03-21T04:16:17.456Z,4.00
2023-03-21T04:18:52.470Z,4.10
2023-03-21T04:21:28.979Z,4.60
2023-03-21T04:24:04.577Z,4.80
2023-03-21T04:26:41.334Z,3.83
2023-03-21T04:29:48.679Z,5.03
2023-03-21T04:32:39.473Z,4.53
2023-03-21T04:35:20.242Z,4.47
2023-03-21T04:37:56.230Z,5.30
2023-03-21T04:40:31.167Z,6.27
2023-03-21T04:43:06.212Z,4.87
2023-03-21T04:45:45.781Z,4.97
2023-03-21T04:48:24.394Z,4.03
2023-03-21T04:51:00.104Z,4.73
2023-03-21T04:53:38.443Z,4.67
2023-03-21T04:56:14.024Z,4.90
2023-03-21T04:58:48.936Z,5.53
2023-03-21T05:01:23.937Z,4.90
2023-03-21T05:04:01.488Z,4.67
2023-03-21T05:06:36.797Z,4.50
2023-03-21T05:09:12.576Z,4.33
2023-03-21T05:11:47.790Z,4.20
2023-03-21T05:14:26.509Z,4.40
2023-03-21T05:17:05.480Z,4.50
2023-03-21T05:19:42.611Z,4.87
2023-03-21T05:22:19.262Z,4.70
2023-03-21T05:24:55.376Z,5.00
2023-03-21T05:28:02.004Z,4.90
2023-03-21T05:30:38.458Z,4.90
2023-03-21T05:33:15.300Z,4.60
2023-03-21T05:35:51.856Z,4.50
2023-03-21T05:38:27.048Z,4.60
2023-03-21T05:41:02.600Z,3.90
2023-03-21T05:43:39.750Z,4.30
2023-03-21T05:46:15.389Z,4.20
2023-03-21T05:48:50.804Z,4.47
2023-03-21T05:51:26.392Z,4.20
2023-03-21T05:54:01.429Z,4.80
2023-03-21T05:56:36.414Z,4.90
2023-03-21T05:59:14.061Z,4.93
2023-03-21T06:01:52.302Z,4.20
2023-03-21T06:04:27.701Z,4.33
2023-03-21T06:07:02.682Z,4.70
2023-03-21T06:09:37.789Z,3.63
2023-03-21T06:12:14.004Z,3.53
2023-03-21T06:15:08.950Z,3.83
2023-03-21T06:18:01.794Z,4.33
2023-03-21T06:20:37.168Z,3.83
2023-03-21T06:23:17.966Z,3.70
2023-03-21T06:25:53.116Z,4.20
2023-03-21T06:28:28.650Z,4.43
2023-03-21T06:31:03.979Z,4.30
2023-03-21T06:33:41.850Z,5.10
2023-03-21T06:36:16.759Z,3.80
2023-03-21T06:38:51.985Z,4.37
2023-03-21T06:41:26.943Z,3.73
2023-03-21T06:44:07.878Z,4.20
2023-03-21T06:46:53.244Z,4.40
2023-03-21T06:49:28.422Z,3.57
2023-03-21T06:52:07.188Z,3.80
2023-03-21T06:54:42.610Z,3.70
2023-03-21T06:57:21.841Z,3.50
2023-03-21T06:59:57.507Z,3.27
2023-03-21T07:02:32.714Z,3.67
2023-03-21T07:05:16.932Z,3.27
2023-03-21T07:07:52.334Z,3.67
2023-03-21T07:10:27.317Z,3.23
2023-03-21T07:13:10.411Z,3.93
2023-03-21T07:16:01.862Z,4.23
2023-03-21T07:18:37.201Z,4.60
2023-03-21T07:21:12.149Z,4.00
2023-03-21T07:23:50.391Z,4.37
2023-03-21T07:26:25.462Z,4.57
2023-03-21T07:29:00.556Z,4.47
2023-03-21T07:31:36.629Z,4.47
2023-03-21T07:34:11.715Z,4.17
2023-03-21T07:36:47.573Z,3.70
2023-03-21T07:39:23.678Z,4.03
2023-03-21T07:42:01.057Z,4.50
2023-03-21T07:44:55.060Z,3.63
2023-03-21T07:47:30.535Z,4.03
2023-03-21T07:50:08.414Z,3.60
2023-03-21T07:52:43.633Z,4.60
2023-03-21T07:55:19.381Z,4.57
2023-03-21T07:57:54.471Z,3.93
2023-03-21T08:00:29.720Z,3.53
2023-03-21T08:03:04.688Z,4.20
2023-03-21T08:05:41.029Z,3.97
2023-03-21T08:08:16.202Z,2.97
2023-03-21T08:10:51.049Z,2.83
2023-03-21T08:13:26.108Z,3.33
2023-03-21T08:16:01.160Z,4.00
2023-03-21T08:18:36.295Z,4.93
2023-03-21T08:21:11.548Z,4.60
2023-03-21T08:23:46.414Z,4.33
2023-03-21T08:26:21.439Z,4.00
2023-03-21T08:28:56.438Z,4.00
2023-03-21T08:31:31.373Z,4.43
2023-03-21T08:34:07.468Z,3.20
2023-03-21T08:36:42.444Z,3.60
2023-03-21T08:39:17.483Z,3.70
2023-03-21T08:41:52.460Z,3.40
2023-03-21T08:44:27.594Z,2.90
2023-03-21T08:47:02.504Z,3.50
2023-03-21T08:49:37.628Z,3.43
2023-03-21T08:52:12.714Z,3.20
2023-03-21T08:54:48.510Z,3.33
2023-03-21T08:57:23.581Z,2.77
2023-03-21T08:59:58.620Z,2.73
2023-03-21T09:02:33.546Z,2.97
2023-03-21T09:05:10.244Z,2.27
2023-03-21T09:07:45.844Z,2.80
2023-03-21T09:10:23.263Z,3.10
2023-03-21T09:12:58.203Z,2.80
2023-03-21T09:15:35.329Z,2.73
2023-03-21T09:18:13.396Z,2.13
2023-03-21T09:20:50.337Z,2.33
2023-03-21T09:23:25.238Z,1.90
2023-03-21T09:26:00.123Z,1.93
2023-03-21T09:28:37.509Z,2.77
2023-03-21T09:31:14.612Z,1.67
2023-03-21T09:33:51.451Z,1.90
2023-03-21T09:36:27.257Z,2.20
2023-03-21T09:39:04.013Z,1.90
2023-03-21T09:42:28.274Z,2.10
2023-03-21T09:45:16.140Z,1.90
2023-03-21T09:47:54.208Z,1.90
2023-03-21T09:50:36.276Z,1.57
2023-03-21T09:53:28.241Z,1.40
2023-03-21T09:56:05.311Z,1.70
2023-03-21T09:58:46.931Z,1.50
2023-03-21T10:01:32.852Z,1.40
2023-03-21T10:04:16.712Z,1.77
2023-03-21T10:06:59.365Z,1.70
2023-03-21T10:09:34.811Z,1.40
2023-03-21T10:12:22.357Z,1.50
2023-03-21T10:15:00.949Z,1.97
2023-03-21T10:17:58.575Z,2.13
2023-03-21T10:20:36.679Z,1.40
2023-03-21T10:23:17.263Z,1.07
2023-03-21T10:25:58.549Z,1.43
2023-03-21T10:28:51.982Z,1.37
2023-03-21T10:31:30.121Z,1.50
2023-03-21T10:34:17.194Z,1.80
2023-03-21T10:36:52.195Z,1.37
2023-03-21T10:39:40.313Z,1.90
2023-03-21T10:42:32.729Z,1.20
2023-03-21T10:45:17.590Z,1.40
2023-03-21T10:47:53.253Z,1.40
2023-03-21T10:50:30.202Z,1.37
2023-03-21T10:53:19.204Z,1.33
2023-03-21T10:55:59.181Z,1.77
2023-03-21T10:58:43.241Z,1.37
2023-03-21T11:01:31.106Z,1.43
2023-03-21T11:04:16.544Z,1.60
2023-03-21T11:06:57.995Z,1.50
2023-03-21T11:09:47.827Z,1.20
2023-03-21T11:12:41.283Z,1.20
2023-03-21T11:15:52.230Z,1.20
2023-03-21T11:18:33.044Z,1.10
2023-03-21T11:21:12.143Z,1.37
2023-03-21T11:23:50.048Z,1.20
2023-03-21T11:26:36.563Z,1.20
2023-03-21T11:29:33.071Z,1.50
2023-03-21T11:32:34.972Z,1.13
2023-03-21T11:35:20.731Z,1.50
2023-03-21T11:37:56.539Z,2.00
2023-03-21T11:40:36.882Z,1.57
2023-03-21T11:43:18.053Z,1.77
2023-03-21T11:46:14.835Z,1.60
2023-03-21T11:48:50.670Z,1.30
2023-03-21T11:51:43.913Z,1.70
2023-03-21T11:54:33.452Z,1.40
2023-03-21T11:57:31.849Z,1.30
2023-03-21T12:00:17.969Z,1.57
2023-03-21T12:03:38.138Z,1.87
2023-03-21T12:06:26.425Z,2.20
2023-03-21T12:09:11.617Z,1.60
2023-03-21T12:12:04.966Z,1.90
2023-03-21T12:15:18.654Z,1.87
2023-03-21T12:18:43.586Z,1.87
2023-03-21T12:21:34.776Z,1.87
2023-03-21T12:24:27.223Z,2.93
2023-03-21T12:27:29.428Z,2.00
2023-03-21T12:30:32.393Z,2.00
2023-03-21T12:33:31.914Z,2.10
2023-03-21T12:36:18.290Z,1.83
2023-03-21T12:39:39.171Z,1.90
2023-03-21T12:42:41.709Z,1.90
2023-03-21T12:45:27.509Z,1.40
2023-03-21T12:48:47.374Z,1.53
2023-03-21T12:51:35.286Z,1.30
2023-03-21T12:54:38.027Z,1.40
2023-03-21T12:57:20.042Z,1.50
2023-03-21T13:00:00.052Z,1.37
2023-03-21T13:02:41.039Z,1.30
2023-03-21T13:05:41.056Z,1.67
2023-03-21T13:08:53.332Z,1.70
2023-03-21T13:11:31.083Z,1.30
2023-03-21T13:14:25.669Z,1.23
2023-03-21T13:17:30.935Z,1.23
2023-03-21T13:20:41.135Z,1.30
2023-03-21T13:23:21.164Z,1.20
2023-03-21T13:25:57.842Z,1.07
2023-03-21T13:28:36.296Z,1.00
2023-03-21T13:31:25.652Z,1.30
2023-03-21T13:34:00.549Z,1.47
2023-03-21T13:36:38.112Z,1.40
2023-03-21T13:39:26.605Z,1.70
2023-03-21T13:42:06.529Z,2.00
2023-03-21T13:44:52.938Z,1.50
2023-03-21T13:48:06.002Z,1.23
2023-03-21T13:51:04.871Z,1.20
2023-03-21T13:53:45.148Z,1.50
2023-03-21T13:56:22.745Z,1.60
2023-03-21T13:59:03.681Z,1.57
2023-03-21T14:01:58.781Z,1.30
2023-03-21T14:04:42.443Z,1.33
2023-03-21T14:07:46.462Z,1.27
2023-03-21T14:10:31.430Z,1.60
2023-03-21T14:13:09.929Z,1.50
2023-03-21T14:15:55.628Z,1.77
2023-03-21T14:19:01.462Z,1.50
2023-03-21T14:21:30.332Z,1.50
2023-03-21T14:24:12.543Z,1.40
2023-03-21T14:26:51.984Z,1.73
2023-03-21T14:29:33.541Z,1.80
2023-03-21T14:32:22.672Z,1.37
2023-03-21T14:35:01.114Z,1.70
2023-03-21T14:37:42.525Z,2.83
2023-03-21T14:40:29.132Z,2.30
2023-03-21T14:43:06.258Z,2.00
2023-03-21T14:45:41.370Z,2.27
2023-03-21T14:48:17.252Z,2.20
2023-03-21T14:50:56.346Z,1.63
2023-03-21T14:53:37.161Z,1.60
2023-03-21T14:56:21.360Z,1.43
2023-03-21T14:58:56.930Z,1.17
2023-03-21T15:01:34.753Z,1.40
2023-03-21T15:04:14.324Z,1.40
2023-03-21T15:06:52.999Z,1.33
2023-03-21T15:09:30.816Z,1.20
2023-03-21T15:12:09.220Z,1.53
2023-03-21T15:14:44.188Z,1.50
2023-03-21T15:17:20.474Z,1.20
2023-03-21T15:19:56.052Z,1.20
2023-03-21T15:22:37.556Z,1.57
2023-03-21T15:25:22.892Z,1.27
2023-03-21T15:27:57.785Z,1.27
2023-03-21T15:30:34.206Z,1.60
2023-03-21T15:33:12.699Z,1.90
2023-03-21T15:35:56.550Z,1.50
2023-03-21T15:38:40.895Z,1.63
2023-03-21T15:41:21.783Z,1.57
2023-03-21T15:44:02.576Z,1.37
2023-03-21T15:46:52.109Z,1.60
2023-03-21T15:49:30.236Z,1.50
2023-03-21T15:52:16.049Z,1.80
2023-03-21T15:54:55.965Z,1.60
2023-03-21T15:57:34.010Z,1.90
2023-03-21T16:00:41.958Z,1.63
2023-03-21T16:03:28.755Z,1.57
2023-03-21T16:06:19.142Z,1.50
2023-03-21T16:09:14.129Z,1.43
2023-03-21T16:11:59.463Z,1.80
2023-03-21T16:14:34.295Z,2.43
2023-03-21T16:17:27.374Z,2.63
2023-03-21T16:20:02.224Z,1.63
2023-03-21T16:22:37.181Z,1.50
2023-03-21T16:25:12.154Z,1.63
2023-03-21T16:27:47.641Z,1.80
2023-03-21T16:30:23.380Z,1.60
2023-03-21T16:32:58.271Z,1.80
2023-03-21T16:35:33.177Z,1.70
2023-03-21T16:38:10.314Z,1.60
2023-03-21T16:40:45.152Z,1.70
2023-03-21T16:43:20.485Z,1.43
2023-03-21T16:45:55.613Z,1.57
2023-03-21T16:48:30.589Z,1.80
2023-03-21T16:51:05.861Z,2.33
2023-03-21T16:53:40.809Z,1.90
2023-03-21T16:56:25.401Z,2.10
2023-03-21T16:59:00.220Z,2.00
2023-03-21T17:01:38.309Z,1.90
2023-03-21T17:04:15.994Z,1.83
2023-03-21T17:06:54.437Z,1.60
2023-03-21T17:09:29.409Z,1.90
2023-03-21T17:12:10.220Z,1.50
2023-03-21T17:14:45.945Z,1.50
2023-03-21T17:17:21.582Z,1.70
2023-03-21T17:19:56.567Z,1.90
2023-03-21T17:22:31.446Z,1.83
2023-03-21T17:25:06.443Z,1.97
2023-03-21T17:27:41.878Z,2.80
2023-03-21T17:30:24.298Z,2.43
2023-03-21T17:32:59.461Z,2.33
2023-03-21T17:35:34.397Z,3.10
2023-03-21T17:38:16.757Z,3.00
2023-03-21T17:40:51.679Z,1.90
2023-03-21T17:43:26.562Z,2.10
2023-03-21T17:46:01.535Z,2.47
2023-03-21T17:48:36.679Z,2.10
2023-03-21T17:51:15.825Z,2.20
2023-03-21T17:53:51.372Z,1.80
2023-03-21T17:56:32.104Z,2.00
2023-03-21T17:59:11.921Z,1.80
2023-03-21T18:01:47.372Z,2.00
2023-03-21T18:04:22.286Z,2.43
2023-03-21T18:06:59.831Z,1.70
2023-03-21T18:09:35.573Z,1.83
2023-03-21T18:12:10.754Z,2.33
2023-03-21T18:14:45.676Z,2.03
2023-03-21T18:17:21.343Z,2.20
2023-03-21T18:19:57.209Z,2.43
2023-03-21T18:22:32.130Z,2.10
2023-03-21T18:25:08.008Z,2.50
2023-03-21T18:28:06.967Z,2.17
2023-03-21T18:31:07.119Z,2.30
2023-03-21T18:33:34.218Z,2.13
2023-03-21T18:36:10.327Z,2.20
2023-03-21T18:38:46.032Z,2.43
2023-03-21T18:41:22.730Z,2.40
2023-03-21T18:44:02.987Z,2.77
2023-03-21T18:46:50.219Z,2.30
2023-03-21T18:50:05.952Z,2.50
2023-03-21T18:52:20.790Z,2.10
2023-03-21T18:54:55.701Z,1.83
2023-03-21T18:57:36.978Z,1.87
2023-03-21T19:00:17.225Z,1.80
2023-03-21T19:03:04.034Z,2.83
2023-03-21T19:05:45.424Z,2.60
2023-03-21T19:08:20.413Z,3.03
2023-03-21T19:10:59.582Z,3.40
2023-03-21T19:13:36.392Z,2.80
2023-03-21T19:16:11.778Z,3.57
2023-03-21T19:18:54.864Z,2.83
2023-03-21T19:21:31.689Z,3.03
2023-03-21T19:24:26.414Z,3.27
2023-03-21T19:27:04.078Z,2.40
2023-03-21T19:29:39.017Z,3.83
2023-03-21T19:32:13.988Z,3.60
2023-03-21T19:34:48.993Z,3.47
2023-03-21T19:37:23.890Z,3.37
2023-03-21T19:39:58.816Z,3.17
2023-03-21T19:42:36.216Z,3.10
2023-03-21T19:45:12.077Z,3.90
2023-03-21T19:47:47.022Z,2.70
2023-03-21T19:50:49.239Z,4.10
2023-03-21T19:53:23.498Z,4.17
2023-03-21T19:56:03.479Z,4.00
2023-03-21T19:58:38.680Z,4.63
2023-03-21T20:01:13.824Z,4.20
2023-03-21T20:03:48.792Z,4.50
2023-03-21T20:06:24.029Z,3.67
2023-03-21T20:09:47.318Z,4.20
2023-03-21T20:11:54.486Z,3.47
2023-03-21T20:14:29.379Z,4.13
2023-03-21T20:17:04.480Z,4.10
2023-03-21T20:19:39.459Z,3.90
2023-03-21T20:22:24.522Z,3.37
2023-03-21T20:25:05.234Z,3.90
2023-03-21T20:27:42.047Z,2.90
2023-03-21T20:30:18.932Z,3.03
2023-03-21T20:32:54.521Z,3.73
2023-03-21T20:36:17.839Z,3.70
2023-03-21T20:38:24.924Z,4.03
2023-03-21T20:41:02.540Z,3.13
2023-03-21T20:46:32.931Z,4.50
2023-03-21T20:49:08.096Z,3.90
2023-03-21T20:54:38.630Z,4.43
2023-03-21T20:57:13.626Z,4.57
2023-03-21T20:59:48.503Z,4.03
2023-03-21T21:02:24.533Z,3.77
2023-03-21T21:05:24.670Z,3.33
2023-03-21T21:07:54.382Z,4.07
2023-03-21T21:10:29.723Z,3.73
2023-03-21T21:13:07.352Z,3.47
2023-03-21T21:15:42.263Z,4.57
2023-03-21T21:18:17.199Z,3.73
2023-03-21T21:20:56.579Z,3.83
2023-03-21T21:23:37.006Z,4.03
2023-03-21T21:26:13.026Z,4.97
2023-03-21T21:28:48.160Z,4.50
2023-03-21T21:31:23.136Z,4.43
2023-03-21T21:33:59.043Z,3.53
2023-03-21T21:36:33.950Z,3.53
2023-03-21T21:39:09.374Z,4.07
2023-03-21T21:41:44.278Z,3.57
2023-03-21T21:44:19.696Z,3.27
2023-03-21T21:46:54.797Z,3.63
2023-03-21T21:49:29.896Z,5.63
2023-03-21T21:52:05.084Z,4.50
2023-03-21T21:54:45.439Z,4.07
2023-03-21T21:57:20.361Z,3.50
2023-03-21T21:59:55.247Z,3.73
2023-03-21T22:02:30.207Z,3.70
2023-03-21T22:05:05.721Z,4.03
2023-03-21T22:07:40.629Z,3.20
2023-03-21T22:10:16.219Z,3.57
2023-03-21T22:12:51.293Z,3.43
2023-03-21T22:15:26.596Z,3.63
2023-03-21T22:18:01.524Z,3.97
2023-03-21T22:20:36.838Z,3.70
2023-03-21T22:23:12.427Z,4.03
2023-03-21T22:25:51.711Z,3.80
2023-03-21T22:28:26.668Z,2.87
2023-03-21T22:31:13.956Z,3.20
2023-03-21T22:33:49.841Z,2.80
2023-03-21T22:36:24.958Z,2.87
2023-03-21T22:39:00.392Z,2.50
2023-03-21T22:41:35.219Z,3.07
2023-03-21T22:44:10.675Z,2.77
2023-03-21T22:46:45.778Z,2.13
2023-03-21T22:49:20.701Z,2.70
2023-03-21T22:51:55.580Z,2.53
2023-03-21T22:54:31.179Z,2.60
2023-03-21T22:57:06.734Z,3.17
2023-03-21T22:59:41.623Z,2.40
2023-03-21T23:02:17.634Z,2.57
2023-03-21T23:04:52.554Z,2.47
2023-03-21T23:07:27.385Z,2.40
2023-03-21T23:10:02.455Z,2.17
2023-03-21T23:12:37.625Z,2.70
2023-03-21T23:15:12.534Z,2.60
2023-03-21T23:17:47.970Z,2.23
2023-03-21T23:20:22.869Z,2.10
2023-03-21T23:22:58.604Z,2.30
2023-03-21T23:25:33.609Z,2.57
2023-03-21T23:28:08.575Z,2.40
2023-03-21T23:30:43.663Z,3.00
2023-03-21T23:33:21.819Z,2.63
2023-03-21T23:35:56.942Z,2.33
2023-03-21T23:38:32.458Z,2.47
2023-03-21T23:41:14.084Z,2.43
2023-03-21T23:43:49.428Z,2.33
2023-03-21T23:46:24.454Z,2.20
2023-03-21T23:48:59.390Z,2.47
2023-03-21T23:51:34.256Z,2.80
2023-03-21T23:54:09.788Z,2.60
2023-03-21T23:56:44.935Z,2.40
2023-03-21T23:59:19.817Z,2.20
